Latest Weather Observations for Westmere

IDV60801

Issued at 10:52 am EST Saturday 1 October 2022 (issued every 10 minutes, with the page automatically refreshed every 10 minutes)

About weather observations | Map of weather stations | Latest weather observations for VIC | Other Formats
Station Details ID: 089112 Name: WESTMERE Lat: -37.71 Lon: 142.94 Height: 226.0 m
Data from the previous 72 hours. | See also: Recent months at Westmere
Date/Time
EST
Temp
°C
App
Temp
°C
Dew
Point
°C
Rel
Hum
%
Delta-T
°C
Wind Press
QNH
hPa
Press
MSL
hPa
Rain since
9am
mm
Dir  Spd
km/h
Gust
km/h
Spd
kts
Gust
kts
01/10:30am 13.6 11.8 9.6 77 2.1 ESE 9 17 5 9 1024.7 1024.8 0.0
01/10:00am 13.0 11.0 10.2 83 1.5 E 11 17 6 9 1025.1 1025.2 0.0
01/09:30am 12.1 9.2 9.8 86 1.2 E 15 20 8 11 1025.3 1025.6 0.0
01/09:00am 10.7 7.9 9.9 95 0.4 ESE 15 20 8 11 1025.6 1025.9 0.0
01/08:30am 9.5 6.5 9.2 98 0.1 E 15 22 8 12 1025.8 1026.1 0.0
01/08:00am 8.9 5.1 8.9 100 0.0 ESE 19 24 10 13 1026.1 1026.4 0.0
01/07:30am 8.7 5.6 8.7 100 0.0 ESE 15 22 8 12 1026.0 1026.3 0.0
01/07:00am 8.4 5.6 8.4 100 0.0 E 13 22 7 12 1025.7 1026.0 0.0
01/06:30am 8.3 5.4 8.3 100 0.0 E 13 19 7 10 1025.5 1025.8 0.0
01/06:00am 8.2 4.6 8.2 100 0.0 E 17 24 9 13 1025.2 1025.5 0.0
01/05:30am 8.1 4.4 8.1 100 0.0 E 17 24 9 13 1024.9 1025.2 0.0
01/05:00am 8.2 4.9 8.2 100 0.0 ESE 15 22 8 12 1024.9 1025.2 0.0
01/04:30am 8.1 4.4 8.1 100 0.0 ESE 17 28 9 15 1024.7 1024.9 0.0
01/04:00am 7.9 3.8 7.9 100 0.0 E 19 28 10 15 1024.9 1025.2 0.0
01/03:30am 6.6 4.5 6.6 100 0.0 ESE 7 9 4 5 1025.0 1025.3 0.0
01/03:00am 6.5 4.4 6.5 100 0.0 ESE 7 9 4 5 1025.2 1025.5 0.0
01/02:30am 7.3 5.0 7.3 100 0.0 ESE 9 13 5 7 1025.5 1025.8 0.0
01/02:00am 7.1 4.7 7.1 100 0.0 ESE 9 13 5 7 1025.8 1026.1 0.0
01/01:30am 7.6 4.6 7.6 100 0.0 ESE 13 17 7 9 1026.2 1026.5 0.0
01/01:00am 8.2 4.9 8.2 100 0.0 ESE 15 19 8 10 1026.5 1026.7 0.0
01/12:30am 8.6 5.8 8.6 100 0.0 ESE 13 19 7 10 1026.5 1026.7 0.0
01/12:00am 8.7 5.6 8.7 100 0.0 ESE 15 22 8 12 1026.6 1026.8 0.0
 
Date/Time
EST
Temp
°C
App
Temp
°C
Dew
Point
°C
Rel
Hum
%
Delta-T
°C
Wind Press
QNH
hPa
Press
MSL
hPa
Rain since
9am
mm
Dir  Spd
km/h
Gust
km/h
Spd
kts
Gust
kts
30/11:30pm 9.3 5.9 9.3 100 0.0 ESE 17 26 9 14 1026.8 1027.0 0.0
30/11:00pm 9.3 5.9 9.3 100 0.0 ESE 17 24 9 13 1026.8 1027.0 0.0
30/10:30pm 9.6 5.9 9.6 100 0.0 ESE 19 26 10 14 1026.9 1027.1 0.0
30/10:00pm 9.8 6.2 9.8 100 0.0 ESE 19 24 10 13 1026.9 1027.1 0.0
30/09:30pm 9.8 6.9 9.8 100 0.0 ESE 15 20 8 11 1027.0 1027.2 0.0
30/09:00pm 9.7 7.2 9.7 100 0.0 ESE 13 19 7 10 1026.8 1027.0 0.0
30/08:30pm 9.8 7.3 9.8 100 0.0 ESE 13 17 7 9 1026.7 1026.9 0.0
30/08:00pm 10.3 7.6 10.3 100 0.0 ESE 15 20 8 11 1026.4 1026.6 0.0
30/07:30pm 10.9 8.0 10.9 100 0.0 ESE 17 22 9 12 1026.2 1026.5 0.0
30/07:00pm 11.8 9.5 11.8 100 0.0 ESE 15 24 8 13 1026.2 1026.5 0.0
30/06:30pm 12.5 9.4 11.7 95 0.4 ESE 19 24 10 13 1026.2 1026.5 0.0
30/06:00pm 13.4 10.0 11.3 87 1.1 ESE 20 30 11 16 1026.1 1026.4 0.0
30/05:30pm 13.4 9.9 10.9 85 1.3 SE 20 28 11 15 1026.1 1026.4 0.0
30/05:00pm 14.3 10.0 10.7 79 1.9 ESE 24 33 13 18 1025.9 1026.2 0.0
30/04:30pm 14.9 10.5 10.5 75 2.3 SE 24 33 13 18 1025.8 1026.1 0.0
30/04:00pm 14.7 10.9 9.9 73 2.5 SE 20 28 11 15 1026.0 1026.3 0.0
30/03:30pm 14.7 11.0 10.3 75 2.3 SE 20 32 11 17 1026.2 1026.5 0.0
30/03:00pm 15.8 12.4 11.2 74 2.5 SE 20 30 11 16 1026.4 1026.6 0.0
30/02:30pm 15.6 12.4 11.4 76 2.3 SE 19 24 10 13 1026.6 1026.8 0.0
30/02:00pm 15.7 12.5 11.1 74 2.5 SE 19 24 10 13 1026.9 1027.1 0.0
30/01:30pm 15.2 12.4 11.4 78 2.1 SE 17 22 9 12 1027.1 1027.3 0.0
30/01:00pm 15.7 13.5 12.1 79 2.0 SE 15 22 8 12 1027.4 1027.6 0.0
30/12:30pm 15.4 12.6 11.4 77 2.2 ESE 17 26 9 14 1027.6 1027.8 0.0
30/12:00pm 14.4 11.1 11.0 80 1.8 ESE 19 24 10 13 1027.8 1028.0 0.0
30/11:30am 14.7 11.7 12.4 86 1.3 ESE 20 30 11 16 1028.1 1028.3 0.0
30/11:00am 13.2 9.6 11.9 92 0.7 ESE 22 30 12 16 1028.4 1028.6 0.0
30/10:30am 12.2 7.7 11.3 94 0.5 ESE 26 35 14 19 1028.8 1029.1 0.0
30/10:00am 12.2 7.9 12.0 99 0.1 ESE 26 37 14 20 1029.0 1029.3 0.0
30/09:30am 11.8 7.7 11.6 99 0.1 ESE 24 32 13 17 1028.9 1029.2 0.0
30/09:00am 11.1 7.3 11.1 100 0.0 ESE 22 33 12 18 1029.0 1029.3 0.0
30/08:30am 10.9 7.4 10.9 100 0.0 ESE 20 30 11 16 1028.8 1029.1 0.0
30/08:00am 10.5 6.9 10.5 100 0.0 ESE 20 26 11 14 1028.7 1029.0 0.0
30/07:30am 10.1 6.9 10.1 100 0.0 ESE 17 28 9 15 1028.3 1028.5 0.0
30/07:00am 9.8 6.6 9.8 100 0.0 ESE 17 22 9 12 1028.1 1028.3 0.0
30/06:30am 9.7 6.4 9.7 100 0.0 ESE 17 26 9 14 1027.8 1028.0 0.0
30/06:00am 9.4 6.4 9.4 100 0.0 ESE 15 20 8 11 1027.5 1027.7 0.0
30/05:30am 9.1 5.7 9.1 100 0.0 ESE 17 24 9 13 1027.2 1027.4 0.0
30/05:00am 9.2 5.2 9.2 100 0.0 ESE 20 30 11 16 1027.1 1027.3 0.0
30/04:30am 9.1 5.3 9.1 100 0.0 SE 19 28 10 15 1026.9 1027.1 0.0
30/04:00am 8.8 4.9 8.8 100 0.0 SE 19 26 10 14 1026.9 1027.1 0.0
30/03:30am 9.0 5.2 9.0 100 0.0 ESE 19 28 10 15 1026.7 1026.9 0.0
30/03:00am 8.6 6.2 8.6 100 0.0 SE 11 19 6 10 1026.8 1027.0 0.0
30/02:30am 8.3 6.2 8.3 100 0.0 SE 9 15 5 8 1027.0 1027.2 0.0
30/02:00am 8.2 5.7 8.2 100 0.0 SE 11 15 6 8 1027.2 1027.4 0.0
30/01:30am 9.2 6.6 9.2 100 0.0 SE 13 17 7 9 1027.3 1027.5 0.0
30/01:00am 9.5 7.3 9.5 100 0.0 SE 11 15 6 8 1027.5 1027.7 0.0
30/12:30am 9.2 7.3 9.2 100 0.0 SE 9 15 5 8 1027.4 1027.6 0.0
30/12:00am 9.8 8.1 9.8 100 0.0 SE 9 13 5 7 1027.5 1027.7 0.0
 
Date/Time
EST
Temp
°C
App
Temp
°C
Dew
Point
°C
Rel
Hum
%
Delta-T
°C
Wind Press
QNH
hPa
Press
MSL
hPa
Rain since
9am
mm
Dir  Spd
km/h
Gust
km/h
Spd
kts
Gust
kts
29/11:30pm 10.0 8.0 10.0 100 0.0 SE 11 17 6 9 1027.7 1027.9 0.0
29/11:00pm 9.9 8.6 9.9 100 0.0 SE 7 11 4 6 1028.1 1028.3 0.0
29/10:30pm 10.1 8.1 10.1 100 0.0 SSE 11 15 6 8 1027.9 1028.1 0.0
29/10:00pm 10.2 9.0 10.2 100 0.0 SSE 7 11 4 6 1027.9 1028.1 0.0
29/09:30pm 10.4 8.5 10.4 100 0.0 SE 11 17 6 9 1027.7 1027.9 0.0
29/09:00pm 10.0 8.3 10.0 100 0.0 S 9 13 5 7 1027.8 1028.0 0.0
29/08:30pm 9.9 7.8 9.9 100 0.0 S 11 15 6 8 1027.6 1027.8 0.0
29/08:00pm 10.4 8.9 10.4 100 0.0 S 9 13 5 7 1027.3 1027.5 0.0
29/07:30pm 10.4 8.1 10.4 100 0.0 SSW 13 20 7 11 1027.0 1027.2 0.0
29/07:00pm 10.2 7.8 10.1 99 0.1 SSW 13 17 7 9 1026.6 1026.8 0.0
29/06:30pm 11.7 8.9 10.1 90 0.8 SSW 15 20 8 11 1026.4 1026.6 0.0
29/06:00pm 12.1 10.3 10.7 91 0.7 SSW 11 17 6 9 1026.2 1026.5 0.0
29/05:30pm 12.7 10.7 10.2 85 1.3 S 11 15 6 8 1026.0 1026.3 0.0
29/05:00pm 13.1 10.8 10.3 83 1.5 SSE 13 17 7 9 1025.8 1026.1 0.0
29/04:30pm 13.9 11.6 10.3 79 1.9 S 13 17 7 9 1025.6 1025.9 0.0
29/04:00pm 13.5 10.7 9.9 79 1.9 S 15 20 8 11 1025.6 1025.9 0.0
29/03:30pm 13.7 11.1 9.4 75 2.2 S 13 17 7 9 1025.7 1026.0 0.0
29/03:00pm 13.4 10.9 9.6 78 2.0 S 13 20 7 11 1025.8 1026.1 0.0
29/02:30pm 13.7 11.1 9.2 74 2.3 S 13 19 7 10 1025.9 1026.2 0.0
29/02:00pm 13.2 10.2 9.3 77 2.0 S 15 20 8 11 1025.9 1026.2 0.0
29/01:30pm 13.4 10.1 9.6 78 2.0 S 17 24 9 13 1026.0 1026.3 0.0
29/01:00pm 13.2 10.1 8.7 74 2.3 SSE 15 22 8 12 1026.1 1026.4 0.0
29/12:30pm 13.1 9.8 9.5 79 1.9 S 17 26 9 14 1026.2 1026.5 0.0
29/12:00pm 12.8 10.0 10.0 83 1.4 SSE 15 20 8 11 1026.4 1026.6 0.0
29/11:30am 12.4 9.6 10.1 86 1.2 SSE 15 20 8 11 1026.5 1026.7 0.0
29/11:00am 12.5 10.1 10.0 85 1.3 SSE 13 24 7 13 1026.6 1026.8 0.0
29/10:30am 12.0 8.8 9.9 87 1.1 SE 17 22 9 12 1026.6 1026.8 0.0
29/10:00am 11.6 8.0 10.0 90 0.8 SSE 19 24 10 13 1026.7 1026.9 0.0
29/09:30am 10.0 7.2 10.0 100 0.0 S 15 20 8 11 1026.8 1027.0 0.0
29/09:00am 10.7 8.5 10.7 100 0.0 SSE 13 20 7 11 1026.7 1026.9 0.2
29/08:30am 9.6 7.5 9.6 100 0.0 SSE 11 15 6 8 1026.6 1026.8 0.2
29/08:00am 9.1 7.6 9.1 100 0.0 S 7 11 4 6 1026.4 1026.6 0.2
29/07:30am 8.6 7.1 8.6 100 0.0 SSW 6 13 3 7 1026.0 1026.3 0.2
29/07:00am 8.1 6.3 8.1 100 0.0 SSW 7 9 4 5 1025.7 1026.0 0.2
29/06:30am 7.5 5.8 7.5 100 0.0 SSE 6 9 3 5 1025.3 1025.6 0.2
29/06:00am 7.4 5.7 7.4 100 0.0 S 6 7 3 4 1024.8 1025.1 0.2
29/05:30am 7.7 5.5 7.7 100 0.0 S 9 13 5 7 1024.6 1024.8 0.2
29/05:00am 7.7 5.8 7.7 100 0.0 S 7 9 4 5 1024.4 1024.6 0.2
29/04:30am 7.4 5.5 7.4 100 0.0 SSW 7 9 4 5 1024.3 1024.5 0.2
29/04:00am 7.3 5.0 7.3 100 0.0 SSW 9 15 5 8 1024.2 1024.4 0.2
29/03:30am 6.7 4.2 6.7 100 0.0 SSW 9 15 5 8 1024.1 1024.3 0.2
29/03:00am 7.6 5.3 7.6 100 0.0 SSW 9 19 5 10 1024.2 1024.4 0.2
29/02:30am 7.6 6.3 7.6 100 0.0 S 4 6 2 3 1024.2 1024.4 0.2
29/02:00am 7.6 5.7 7.6 100 0.0 S 7 13 4 7 1024.4 1024.6 0.2
29/01:30am 8.0 5.5 8.0 100 0.0 S 11 15 6 8 1024.5 1024.7 0.2
29/01:00am 8.1 6.0 8.1 100 0.0 S 9 13 5 7 1024.4 1024.6 0.2
29/12:30am 8.1 6.3 8.1 100 0.0 SSW 7 11 4 6 1024.3 1024.5 0.2
29/12:00am 8.1 5.6 8.1 100 0.0 SSW 11 15 6 8 1024.2 1024.4 0.2
 
Date/Time
EST
Temp
°C
App
Temp
°C
Dew
Point
°C
Rel
Hum
%
Delta-T
°C
Wind Press
QNH
hPa
Press
MSL
hPa
Rain since
9am
mm
Dir  Spd
km/h
Gust
km/h
Spd
kts
Gust
kts
28/11:30pm 8.0 6.2 8.0 100 0.0 S 7 9 4 5 1024.2 1024.4 0.2
28/11:00pm 7.9 4.9 7.9 100 0.0 S 13 17 7 9 1024.1 1024.3 0.2
28/10:30pm 8.1 4.8 8.1 100 0.0 SSW 15 20 8 11 1024.1 1024.3 0.2
28/10:00pm 8.2 5.3 8.2 100 0.0 S 13 19 7 10 1024.1 1024.3 0.2
28/09:30pm 8.6 5.4 8.6 100 0.0 S 15 20 8 11 1024.2 1024.4 0.2
28/09:00pm 8.6 6.2 8.6 100 0.0 S 11 15 6 8 1024.0 1024.2 0.2
28/08:30pm 9.0 5.9 9.0 100 0.0 S 15 20 8 11 1023.9 1024.1 0.0
28/08:00pm 9.2 5.8 9.2 100 0.0 S 17 24 9 13 1023.6 1023.8 0.0
28/07:30pm 9.5 6.2 9.5 100 0.0 SSW 17 24 9 13 1023.1 1023.3 0.0
28/07:00pm 9.7 6.1 9.7 100 0.0 S 19 28 10 15 1022.8 1023.0 0.0
28/06:30pm 10.1 6.4 10.1 100 0.0 S 20 30 11 16 1022.3 1022.5 0.0
28/06:00pm 10.3 6.8 10.3 100 0.0 S 19 24 10 13 1021.9 1022.1 0.0
28/05:30pm 10.7 7.3 10.7 100 0.0 S 19 28 10 15 1021.6 1021.9 0.0
28/05:00pm 11.5 8.6 11.0 97 0.3 S 17 26 9 14 1021.3 1021.6 0.0
28/04:30pm 11.6 8.8 11.3 98 0.2 SSW 17 26 9 14 1021.2 1021.5 0.0
28/04:00pm 12.1 9.4 10.5 90 0.8 S 15 20 8 11 1021.0 1021.2 0.0
28/03:30pm 11.5 8.1 10.4 93 0.6 SSW 19 28 10 15 1021.0 1021.2 0.0
28/03:00pm 11.7 8.7 10.6 93 0.6 S 17 24 9 13 1021.0 1021.2 0.0
28/02:30pm 12.2 8.8 10.4 89 0.9 S 19 24 10 13 1020.9 1021.1 0.0
28/02:00pm 12.2 9.6 10.8 91 0.7 S 15 20 8 11 1020.8 1021.0 0.0
28/01:30pm 12.0 8.8 9.9 87 1.1 S 17 24 9 13 1020.9 1021.1 0.0
28/01:00pm 11.6 9.1 11.0 96 0.3 S 15 24 8 13 1021.1 1021.4 0.0
28/12:30pm 11.6 8.6 10.8 95 0.4 S 17 26 9 14 1021.4 1021.7 0.0
28/12:00pm 12.1 9.1 10.7 91 0.7 S 17 24 9 13 1021.3 1021.6 0.0
28/11:30am 11.6 9.3 11.6 100 0.0 S 15 22 8 12 1021.2 1021.5 0.0
28/11:00am 11.1 8.2 11.1 100 0.0 S 17 24 9 13 1021.2 1021.5 0.0

Other formats

Comma delimited format used in spreadsheet applications
http://www.bom.gov.au/fwo/IDV60801/IDV60801.95840.axf

JavaScript Object Notation format (JSON) in row-major order
http://www.bom.gov.au/fwo/IDV60801/IDV60801.95840.json

Data quality

Most of these data are generated automatically and are frequently updated. Quality checks on data are not normally performed. It is possible for incorrect values to appear. Refer to information at About Latest Weather Observations and please check the disclaimer before using these data.